sensor_id;sensor_type;location;lat;lon;timestamp;temperature;humidity
26479;DHT22;14163;-26.142;27.992;2022-10-16T00:00:15;25.30;88.40
26479;DHT22;14163;-26.142;27.992;2022-10-16T00:02:44;25.30;89.10
26479;DHT22;14163;-26.142;27.992;2022-10-16T00:05:14;25.30;89.70
26479;DHT22;14163;-26.142;27.992;2022-10-16T00:07:43;25.20;90.00
26479;DHT22;14163;-26.142;27.992;2022-10-16T00:10:12;25.20;90.20
26479;DHT22;14163;-26.142;27.992;2022-10-16T00:12:43;25.20;90.40
26479;DHT22;14163;-26.142;27.992;2022-10-16T00:15:13;25.20;90.80
26479;DHT22;14163;-26.142;27.992;2022-10-16T00:17:42;25.00;91.60
26479;DHT22;14163;-26.142;27.992;2022-10-16T00:20:11;24.90;92.20
26479;DHT22;14163;-26.142;27.992;2022-10-16T00:22:40;24.90;92.60
26479;DHT22;14163;-26.142;27.992;2022-10-16T00:25:09;24.80;93.00
26479;DHT22;14163;-26.142;27.992;2022-10-16T00:27:39;24.90;93.40
26479;DHT22;14163;-26.142;27.992;2022-10-16T00:30:10;24.90;93.60
26479;DHT22;14163;-26.142;27.992;2022-10-16T00:32:39;24.90;93.90
26479;DHT22;14163;-26.142;27.992;2022-10-16T00:35:08;25.00;94.10
26479;DHT22;14163;-26.142;27.992;2022-10-16T00:37:38;25.00;94.20
26479;DHT22;14163;-26.142;27.992;2022-10-16T00:40:08;24.90;94.70
26479;DHT22;14163;-26.142;27.992;2022-10-16T00:42:37;24.80;95.20
26479;DHT22;14163;-26.142;27.992;2022-10-16T00:45:10;24.80;95.70
26479;DHT22;14163;-26.142;27.992;2022-10-16T00:47:42;24.80;96.00
26479;DHT22;14163;-26.142;27.992;2022-10-16T00:50:22;24.80;96.60
26479;DHT22;14163;-26.142;27.992;2022-10-16T00:52:53;24.90;96.90
26479;DHT22;14163;-26.142;27.992;2022-10-16T00:55:23;24.80;97.40
26479;DHT22;14163;-26.142;27.992;2022-10-16T00:57:53;24.90;97.70
26479;DHT22;14163;-26.142;27.992;2022-10-16T01:00:27;24.90;97.80
26479;DHT22;14163;-26.142;27.992;2022-10-16T01:02:58;24.90;98.00
26479;DHT22;14163;-26.142;27.992;2022-10-16T01:05:32;24.90;98.60
26479;DHT22;14163;-26.142;27.992;2022-10-16T01:08:08;24.80;99.10
26479;DHT22;14163;-26.142;27.992;2022-10-16T01:10:40;24.80;99.50
26479;DHT22;14163;-26.142;27.992;2022-10-16T01:13:20;24.70;99.90
26479;DHT22;14163;-26.142;27.992;2022-10-16T01:15:56;24.70;99.90
26479;DHT22;14163;-26.142;27.992;2022-10-16T01:18:32;24.60;99.90
26479;DHT22;14163;-26.142;27.992;2022-10-16T01:21:05;24.50;99.90
26479;DHT22;14163;-26.142;27.992;2022-10-16T01:23:42;24.40;99.90
26479;DHT22;14163;-26.142;27.992;2022-10-16T01:26:28;24.40;99.90
26479;DHT22;14163;-26.142;27.992;2022-10-16T01:29:05;24.40;99.90
26479;DHT22;14163;-26.142;27.992;2022-10-16T01:31:39;24.40;99.90
26479;DHT22;14163;-26.142;27.992;2022-10-16T01:34:14;24.40;99.90
26479;DHT22;14163;-26.142;27.992;2022-10-16T01:36:49;24.30;99.90
26479;DHT22;14163;-26.142;27.992;2022-10-16T01:39:22;24.30;99.90
26479;DHT22;14163;-26.142;27.992;2022-10-16T01:41:56;24.30;99.90
26479;DHT22;14163;-26.142;27.992;2022-10-16T01:44:32;24.30;99.90
26479;DHT22;14163;-26.142;27.992;2022-10-16T01:47:03;24.30;99.90
26479;DHT22;14163;-26.142;27.992;2022-10-16T01:49:34;24.10;99.90
26479;DHT22;14163;-26.142;27.992;2022-10-16T01:52:08;24.00;99.90
26479;DHT22;14163;-26.142;27.992;2022-10-16T01:54:39;23.90;99.90
26479;DHT22;14163;-26.142;27.992;2022-10-16T01:57:11;23.70;99.90
26479;DHT22;14163;-26.142;27.992;2022-10-16T01:59:47;23.70;99.90
26479;DHT22;14163;-26.142;27.992;2022-10-16T02:02:18;23.70;99.90
26479;DHT22;14163;-26.142;27.992;2022-10-16T02:04:53;23.80;99.90
26479;DHT22;14163;-26.142;27.992;2022-10-16T02:07:23;23.80;99.90
26479;DHT22;14163;-26.142;27.992;2022-10-16T02:09:52;23.80;99.90
26479;DHT22;14163;-26.142;27.992;2022-10-16T02:12:25;23.90;99.90
26479;DHT22;14163;-26.142;27.992;2022-10-16T02:14:57;23.90;99.90
26479;DHT22;14163;-26.142;27.992;2022-10-16T02:17:26;23.90;99.90
26479;DHT22;14163;-26.142;27.992;2022-10-16T02:19:57;23.70;99.90
26479;DHT22;14163;-26.142;27.992;2022-10-16T02:22:28;23.40;99.90
26479;DHT22;14163;-26.142;27.992;2022-10-16T02:25:01;23.20;99.90
26479;DHT22;14163;-26.142;27.992;2022-10-16T02:27:34;23.20;99.90
26479;DHT22;14163;-26.142;27.992;2022-10-16T02:30:11;23.30;99.90
26479;DHT22;14163;-26.142;27.992;2022-10-16T02:32:43;23.40;99.90
26479;DHT22;14163;-26.142;27.992;2022-10-16T02:35:16;23.40;99.90
26479;DHT22;14163;-26.142;27.992;2022-10-16T02:37:48;23.50;99.90
26479;DHT22;14163;-26.142;27.992;2022-10-16T02:40:19;23.50;99.90
26479;DHT22;14163;-26.142;27.992;2022-10-16T02:42:51;23.40;99.90
26479;DHT22;14163;-26.142;27.992;2022-10-16T02:45:23;23.40;99.90
26479;DHT22;14163;-26.142;27.992;2022-10-16T02:47:52;23.30;99.90
26479;DHT22;14163;-26.142;27.992;2022-10-16T02:50:22;23.30;99.90
26479;DHT22;14163;-26.142;27.992;2022-10-16T02:52:52;23.30;99.90
26479;DHT22;14163;-26.142;27.992;2022-10-16T02:55:21;23.10;99.90
26479;DHT22;14163;-26.142;27.992;2022-10-16T02:57:50;23.10;99.90
26479;DHT22;14163;-26.142;27.992;2022-10-16T03:00:21;23.00;99.90
26479;DHT22;14163;-26.142;27.992;2022-10-16T03:02:51;23.10;99.90
26479;DHT22;14163;-26.142;27.992;2022-10-16T03:05:21;23.10;99.90
26479;DHT22;14163;-26.142;27.992;2022-10-16T03:07:50;23.30;99.90
26479;DHT22;14163;-26.142;27.992;2022-10-16T03:10:21;23.30;99.90
26479;DHT22;14163;-26.142;27.992;2022-10-16T03:12:50;23.20;99.90
26479;DHT22;14163;-26.142;27.992;2022-10-16T03:15:23;23.20;99.90
26479;DHT22;14163;-26.142;27.992;2022-10-16T03:17:56;23.20;99.90
26479;DHT22;14163;-26.142;27.992;2022-10-16T03:20:26;23.10;99.90
26479;DHT22;14163;-26.142;27.992;2022-10-16T03:22:55;23.00;99.90
26479;DHT22;14163;-26.142;27.992;2022-10-16T03:25:25;22.80;99.90
26479;DHT22;14163;-26.142;27.992;2022-10-16T03:27:54;22.90;99.90
26479;DHT22;14163;-26.142;27.992;2022-10-16T03:30:25;22.80;99.90
26479;DHT22;14163;-26.142;27.992;2022-10-16T03:32:54;22.80;99.90
26479;DHT22;14163;-26.142;27.992;2022-10-16T03:35:24;22.90;99.90
26479;DHT22;14163;-26.142;27.992;2022-10-16T03:37:53;22.90;99.90
26479;DHT22;14163;-26.142;27.992;2022-10-16T03:40:23;22.70;99.90
26479;DHT22;14163;-26.142;27.992;2022-10-16T03:42:52;22.60;99.90
26479;DHT22;14163;-26.142;27.992;2022-10-16T03:45:25;22.50;99.90
26479;DHT22;14163;-26.142;27.992;2022-10-16T03:47:54;22.60;99.90
26479;DHT22;14163;-26.142;27.992;2022-10-16T03:50:24;22.60;99.90
26479;DHT22;14163;-26.142;27.992;2022-10-16T03:52:53;22.70;99.90
26479;DHT22;14163;-26.142;27.992;2022-10-16T03:55:22;22.80;99.90
26479;DHT22;14163;-26.142;27.992;2022-10-16T03:57:51;22.90;99.90
26479;DHT22;14163;-26.142;27.992;2022-10-16T04:00:20;22.90;99.90
26479;DHT22;14163;-26.142;27.992;2022-10-16T04:02:51;22.90;99.90
26479;DHT22;14163;-26.142;27.992;2022-10-16T04:05:20;22.90;99.90
26479;DHT22;14163;-26.142;27.992;2022-10-16T04:07:50;22.90;99.90
26479;DHT22;14163;-26.142;27.992;2022-10-16T04:10:19;22.80;99.90
26479;DHT22;14163;-26.142;27.992;2022-10-16T04:12:48;22.70;99.90
26479;DHT22;14163;-26.142;27.992;2022-10-16T04:15:17;22.70;99.90
26479;DHT22;14163;-26.142;27.992;2022-10-16T04:17:46;22.50;99.90
26479;DHT22;14163;-26.142;27.992;2022-10-16T04:20:17;22.40;99.90
26479;DHT22;14163;-26.142;27.992;2022-10-16T04:22:46;22.20;99.90
26479;DHT22;14163;-26.142;27.992;2022-10-16T04:25:15;21.90;99.90
26479;DHT22;14163;-26.142;27.992;2022-10-16T04:27:45;21.90;99.90
26479;DHT22;14163;-26.142;27.992;2022-10-16T04:30:14;21.70;99.90
26479;DHT22;14163;-26.142;27.992;2022-10-16T04:32:43;21.50;99.90
26479;DHT22;14163;-26.142;27.992;2022-10-16T04:35:18;21.60;99.90
26479;DHT22;14163;-26.142;27.992;2022-10-16T04:37:48;21.80;99.90
26479;DHT22;14163;-26.142;27.992;2022-10-16T04:40:17;22.00;99.90
26479;DHT22;14163;-26.142;27.992;2022-10-16T04:42:47;22.20;99.90
26479;DHT22;14163;-26.142;27.992;2022-10-16T04:45:16;22.20;99.90
26479;DHT22;14163;-26.142;27.992;2022-10-16T04:47:46;22.10;99.90
26479;DHT22;14163;-26.142;27.992;2022-10-16T04:50:18;22.10;99.90
26479;DHT22;14163;-26.142;27.992;2022-10-16T04:52:47;22.00;99.90
26479;DHT22;14163;-26.142;27.992;2022-10-16T04:55:17;21.80;99.90
26479;DHT22;14163;-26.142;27.992;2022-10-16T04:57:46;21.90;99.90
26479;DHT22;14163;-26.142;27.992;2022-10-16T05:00:16;21.90;99.90
26479;DHT22;14163;-26.142;27.992;2022-10-16T05:02:47;21.70;99.90
26479;DHT22;14163;-26.142;27.992;2022-10-16T05:05:18;21.50;99.90
26479;DHT22;14163;-26.142;27.992;2022-10-16T05:07:47;21.40;99.90
26479;DHT22;14163;-26.142;27.992;2022-10-16T05:10:18;21.10;99.90
26479;DHT22;14163;-26.142;27.992;2022-10-16T05:12:48;21.10;99.90
26479;DHT22;14163;-26.142;27.992;2022-10-16T05:15:18;21.20;99.90
26479;DHT22;14163;-26.142;27.992;2022-10-16T05:17:47;21.20;99.90
26479;DHT22;14163;-26.142;27.992;2022-10-16T05:20:18;21.10;99.90
26479;DHT22;14163;-26.142;27.992;2022-10-16T05:22:48;21.10;99.90
26479;DHT22;14163;-26.142;27.992;2022-10-16T05:25:17;21.10;99.90
26479;DHT22;14163;-26.142;27.992;2022-10-16T05:27:48;21.00;99.90
26479;DHT22;14163;-26.142;27.992;2022-10-16T05:30:18;21.20;99.90
26479;DHT22;14163;-26.142;27.992;2022-10-16T05:32:48;21.20;99.90
26479;DHT22;14163;-26.142;27.992;2022-10-16T05:35:19;21.30;99.90
26479;DHT22;14163;-26.142;27.992;2022-10-16T05:37:48;21.30;99.90
26479;DHT22;14163;-26.142;27.992;2022-10-16T05:40:17;21.30;99.90
26479;DHT22;14163;-26.142;27.992;2022-10-16T05:42:46;21.30;99.90
26479;DHT22;14163;-26.142;27.992;2022-10-16T05:45:16;21.40;99.90
26479;DHT22;14163;-26.142;27.992;2022-10-16T05:47:45;21.40;99.90
26479;DHT22;14163;-26.142;27.992;2022-10-16T05:50:14;21.30;99.90
26479;DHT22;14163;-26.142;27.992;2022-10-16T05:52:45;21.50;99.90
26479;DHT22;14163;-26.142;27.992;2022-10-16T05:55:14;21.70;99.90
26479;DHT22;14163;-26.142;27.992;2022-10-16T05:57:43;22.00;99.90
26479;DHT22;14163;-26.142;27.992;2022-10-16T06:00:13;22.10;99.90
26479;DHT22;14163;-26.142;27.992;2022-10-16T06:02:42;22.20;99.90
26479;DHT22;14163;-26.142;27.992;2022-10-16T06:05:12;22.40;99.90
26479;DHT22;14163;-26.142;27.992;2022-10-16T06:07:41;22.30;99.90
26479;DHT22;14163;-26.142;27.992;2022-10-16T06:10:12;22.20;99.90
26479;DHT22;14163;-26.142;27.992;2022-10-16T06:12:41;22.20;99.90
26479;DHT22;14163;-26.142;27.992;2022-10-16T06:15:10;22.10;99.90
26479;DHT22;14163;-26.142;27.992;2022-10-16T06:17:39;22.00;99.90
26479;DHT22;14163;-26.142;27.992;2022-10-16T06:20:09;22.10;99.90
26479;DHT22;14163;-26.142;27.992;2022-10-16T06:22:38;22.10;99.90
26479;DHT22;14163;-26.142;27.992;2022-10-16T06:25:08;22.10;99.90
26479;DHT22;14163;-26.142;27.992;2022-10-16T06:27:39;22.20;99.90
26479;DHT22;14163;-26.142;27.992;2022-10-16T06:30:09;22.10;99.90
26479;DHT22;14163;-26.142;27.992;2022-10-16T06:32:39;22.00;99.90
26479;DHT22;14163;-26.142;27.992;2022-10-16T06:35:08;21.80;99.90
26479;DHT22;14163;-26.142;27.992;2022-10-16T06:37:39;21.70;99.90
26479;DHT22;14163;-26.142;27.992;2022-10-16T06:40:09;21.50;99.90
26479;DHT22;14163;-26.142;27.992;2022-10-16T06:42:40;21.40;99.90
26479;DHT22;14163;-26.142;27.992;2022-10-16T06:45:09;21.40;99.90
26479;DHT22;14163;-26.142;27.992;2022-10-16T06:47:39;21.50;99.90
26479;DHT22;14163;-26.142;27.992;2022-10-16T06:50:09;21.50;99.90
26479;DHT22;14163;-26.142;27.992;2022-10-16T06:52:38;21.50;99.90
26479;DHT22;14163;-26.142;27.992;2022-10-16T06:55:08;21.50;99.90
26479;DHT22;14163;-26.142;27.992;2022-10-16T06:57:40;21.50;99.90
26479;DHT22;14163;-26.142;27.992;2022-10-16T07:00:10;21.60;99.90
26479;DHT22;14163;-26.142;27.992;2022-10-16T07:02:40;21.60;99.90
26479;DHT22;14163;-26.142;27.992;2022-10-16T07:05:10;21.70;99.90
26479;DHT22;14163;-26.142;27.992;2022-10-16T07:07:39;21.90;99.90
26479;DHT22;14163;-26.142;27.992;2022-10-16T07:10:09;22.00;99.90
26479;DHT22;14163;-26.142;27.992;2022-10-16T07:12:40;22.00;99.90
26479;DHT22;14163;-26.142;27.992;2022-10-16T07:15:09;22.00;99.90
26479;DHT22;14163;-26.142;27.992;2022-10-16T07:17:39;22.10;99.90
26479;DHT22;14163;-26.142;27.992;2022-10-16T07:20:09;22.10;99.90
26479;DHT22;14163;-26.142;27.992;2022-10-16T07:22:38;21.80;99.90
26479;DHT22;14163;-26.142;27.992;2022-10-16T07:25:08;21.70;99.90
26479;DHT22;14163;-26.142;27.992;2022-10-16T07:27:39;21.70;99.90
26479;DHT22;14163;-26.142;27.992;2022-10-16T07:30:09;21.70;99.90
26479;DHT22;14163;-26.142;27.992;2022-10-16T07:32:38;21.70;99.90
26479;DHT22;14163;-26.142;27.992;2022-10-16T07:35:08;21.70;99.90
26479;DHT22;14163;-26.142;27.992;2022-10-16T07:37:37;21.60;99.90
26479;DHT22;14163;-26.142;27.992;2022-10-16T07:40:07;21.60;99.90
26479;DHT22;14163;-26.142;27.992;2022-10-16T07:42:39;21.70;99.90
26479;DHT22;14163;-26.142;27.992;2022-10-16T07:45:08;21.80;99.90
26479;DHT22;14163;-26.142;27.992;2022-10-16T07:47:37;21.80;99.90
26479;DHT22;14163;-26.142;27.992;2022-10-16T07:50:07;21.50;99.90
26479;DHT22;14163;-26.142;27.992;2022-10-16T07:52:36;21.50;99.90
26479;DHT22;14163;-26.142;27.992;2022-10-16T07:55:06;21.60;99.90
26479;DHT22;14163;-26.142;27.992;2022-10-16T07:57:35;21.60;99.90
26479;DHT22;14163;-26.142;27.992;2022-10-16T08:00:08;21.60;99.90
26479;DHT22;14163;-26.142;27.992;2022-10-16T08:02:40;21.60;99.90
26479;DHT22;14163;-26.142;27.992;2022-10-16T08:05:10;21.70;99.90
26479;DHT22;14163;-26.142;27.992;2022-10-16T08:07:39;21.90;99.90
26479;DHT22;14163;-26.142;27.992;2022-10-16T08:10:12;21.80;99.90
26479;DHT22;14163;-26.142;27.992;2022-10-16T08:12:44;21.70;99.90
26479;DHT22;14163;-26.142;27.992;2022-10-16T08:15:15;21.70;99.90
26479;DHT22;14163;-26.142;27.992;2022-10-16T08:17:45;21.80;99.90
26479;DHT22;14163;-26.142;27.992;2022-10-16T08:20:22;22.00;99.90
26479;DHT22;14163;-26.142;27.992;2022-10-16T08:22:51;22.20;99.90
26479;DHT22;14163;-26.142;27.992;2022-10-16T08:25:21;22.50;99.90
26479;DHT22;14163;-26.142;27.992;2022-10-16T08:27:51;22.60;99.90
26479;DHT22;14163;-26.142;27.992;2022-10-16T08:30:23;22.50;99.90
26479;DHT22;14163;-26.142;27.992;2022-10-16T08:32:52;22.80;99.90
26479;DHT22;14163;-26.142;27.992;2022-10-16T08:35:21;22.90;99.90
26479;DHT22;14163;-26.142;27.992;2022-10-16T08:37:51;22.80;99.90
26479;DHT22;14163;-26.142;27.992;2022-10-16T08:40:24;22.90;99.90
26479;DHT22;14163;-26.142;27.992;2022-10-16T08:46:17;23.20;99.90
26479;DHT22;14163;-26.142;27.992;2022-10-16T08:48:50;23.30;99.90
26479;DHT22;14163;-26.142;27.992;2022-10-16T08:51:22;23.30;99.90
26479;DHT22;14163;-26.142;27.992;2022-10-16T08:53:54;23.20;99.90
26479;DHT22;14163;-26.142;27.992;2022-10-16T08:56:25;23.00;99.90
26479;DHT22;14163;-26.142;27.992;2022-10-16T08:58:57;23.00;99.90
26479;DHT22;14163;-26.142;27.992;2022-10-16T09:01:37;22.90;99.90
26479;DHT22;14163;-26.142;27.992;2022-10-16T09:04:40;22.80;99.90
26479;DHT22;14163;-26.142;27.992;2022-10-16T09:07:15;22.90;99.90
26479;DHT22;14163;-26.142;27.992;2022-10-16T09:09:59;23.00;99.90
26479;DHT22;14163;-26.142;27.992;2022-10-16T09:12:35;22.90;99.90
26479;DHT22;14163;-26.142;27.992;2022-10-16T09:15:17;22.80;99.90
26479;DHT22;14163;-26.142;27.992;2022-10-16T09:17:55;22.80;99.90
26479;DHT22;14163;-26.142;27.992;2022-10-16T09:20:35;23.00;99.90
26479;DHT22;14163;-26.142;27.992;2022-10-16T09:23:17;23.20;99.90
26479;DHT22;14163;-26.142;27.992;2022-10-16T09:25:48;23.10;99.90
26479;DHT22;14163;-26.142;27.992;2022-10-16T09:28:18;23.10;99.90
26479;DHT22;14163;-26.142;27.992;2022-10-16T09:30:48;23.20;99.90
26479;DHT22;14163;-26.142;27.992;2022-10-16T09:33:20;23.00;99.90
26479;DHT22;14163;-26.142;27.992;2022-10-16T09:35:51;23.10;99.90
26479;DHT22;14163;-26.142;27.992;2022-10-16T09:38:23;23.00;99.90
26479;DHT22;14163;-26.142;27.992;2022-10-16T09:40:53;23.00;99.90
26479;DHT22;14163;-26.142;27.992;2022-10-16T09:43:25;23.10;99.90
26479;DHT22;14163;-26.142;27.992;2022-10-16T09:45:58;23.30;99.90
26479;DHT22;14163;-26.142;27.992;2022-10-16T09:48:33;23.50;99.90
26479;DHT22;14163;-26.142;27.992;2022-10-16T09:51:13;23.60;99.90
26479;DHT22;14163;-26.142;27.992;2022-10-16T09:53:46;23.40;99.90
26479;DHT22;14163;-26.142;27.992;2022-10-16T09:56:22;23.50;99.90
26479;DHT22;14163;-26.142;27.992;2022-10-16T09:58:53;23.40;99.90
26479;DHT22;14163;-26.142;27.992;2022-10-16T10:01:26;23.50;99.90
26479;DHT22;14163;-26.142;27.992;2022-10-16T10:03:59;23.50;99.90
26479;DHT22;14163;-26.142;27.992;2022-10-16T12:09:47;30.00;93.60
26479;DHT22;14163;-26.142;27.992;2022-10-16T12:12:37;30.20;92.70
26479;DHT22;14163;-26.142;27.992;2022-10-16T12:15:22;30.80;91.70
26479;DHT22;14163;-26.142;27.992;2022-10-16T12:17:52;31.10;90.80
26479;DHT22;14163;-26.142;27.992;2022-10-16T12:20:28;31.60;90.30
26479;DHT22;14163;-26.142;27.992;2022-10-16T12:23:00;32.30;89.30
26479;DHT22;14163;-26.142;27.992;2022-10-16T12:25:34;33.00;86.20
26479;DHT22;14163;-26.142;27.992;2022-10-16T12:28:21;33.10;81.90
26479;DHT22;14163;-26.142;27.992;2022-10-16T12:30:54;33.00;79.70
26479;DHT22;14163;-26.142;27.992;2022-10-16T12:33:26;32.50;80.30
26479;DHT22;14163;-26.142;27.992;2022-10-16T12:35:57;32.80;80.80
26479;DHT22;14163;-26.142;27.992;2022-10-16T12:38:28;33.20;79.90
26479;DHT22;14163;-26.142;27.992;2022-10-16T12:41:04;33.30;79.20
26479;DHT22;14163;-26.142;27.992;2022-10-16T12:43:39;33.40;79.00
26479;DHT22;14163;-26.142;27.992;2022-10-16T12:46:34;32.90;79.60
26479;DHT22;14163;-26.142;27.992;2022-10-16T12:49:29;32.30;80.60
26479;DHT22;14163;-26.142;27.992;2022-10-16T12:51:59;31.90;81.40
26479;DHT22;14163;-26.142;27.992;2022-10-16T12:54:30;31.80;81.30
26479;DHT22;14163;-26.142;27.992;2022-10-16T13:00:06;31.70;82.60
26479;DHT22;14163;-26.142;27.992;2022-10-16T13:03:10;30.00;84.60
26479;DHT22;14163;-26.142;27.992;2022-10-16T13:05:58;29.30;85.80
26479;DHT22;14163;-26.142;27.992;2022-10-16T13:08:44;28.90;88.20
26479;DHT22;14163;-26.142;27.992;2022-10-16T13:11:24;29.00;89.50
26479;DHT22;14163;-26.142;27.992;2022-10-16T13:14:16;28.90;89.40
26479;DHT22;14163;-26.142;27.992;2022-10-16T13:17:01;28.70;90.30
26479;DHT22;14163;-26.142;27.992;2022-10-16T13:19:41;28.50;90.60
26479;DHT22;14163;-26.142;27.992;2022-10-16T13:22:19;28.30;90.70
26479;DHT22;14163;-26.142;27.992;2022-10-16T13:24:59;28.30;91.80
26479;DHT22;14163;-26.142;27.992;2022-10-16T13:27:37;28.40;92.10
26479;DHT22;14163;-26.142;27.992;2022-10-16T13:30:15;28.40;91.70
26479;DHT22;14163;-26.142;27.992;2022-10-16T13:32:50;28.40;91.50
26479;DHT22;14163;-26.142;27.992;2022-10-16T13:35:25;28.40;91.70
26479;DHT22;14163;-26.142;27.992;2022-10-16T13:38:14;28.20;92.40
26479;DHT22;14163;-26.142;27.992;2022-10-16T13:40:55;28.30;91.90
26479;DHT22;14163;-26.142;27.992;2022-10-16T13:43:28;28.20;91.80
26479;DHT22;14163;-26.142;27.992;2022-10-16T13:46:00;28.00;90.90
26479;DHT22;14163;-26.142;27.992;2022-10-16T13:48:33;28.20;93.20
26479;DHT22;14163;-26.142;27.992;2022-10-16T13:51:05;28.10;91.00
26479;DHT22;14163;-26.142;27.992;2022-10-16T13:53:36;28.00;91.60
26479;DHT22;14163;-26.142;27.992;2022-10-16T13:56:10;28.10;92.20
26479;DHT22;14163;-26.142;27.992;2022-10-16T13:58:41;28.10;91.80
26479;DHT22;14163;-26.142;27.992;2022-10-16T14:01:18;28.20;94.60
26479;DHT22;14163;-26.142;27.992;2022-10-16T14:03:50;28.40;92.60
26479;DHT22;14163;-26.142;27.992;2022-10-16T14:06:21;28.60;92.60
26479;DHT22;14163;-26.142;27.992;2022-10-16T14:08:57;28.60;92.10
26479;DHT22;14163;-26.142;27.992;2022-10-16T14:11:29;28.70;92.30
26479;DHT22;14163;-26.142;27.992;2022-10-16T14:13:59;28.90;92.30
26479;DHT22;14163;-26.142;27.992;2022-10-16T14:16:30;29.00;93.20
26479;DHT22;14163;-26.142;27.992;2022-10-16T14:19:03;29.10;92.30
26479;DHT22;14163;-26.142;27.992;2022-10-16T14:21:35;28.90;92.00
26479;DHT22;14163;-26.142;27.992;2022-10-16T14:24:12;28.70;92.40
26479;DHT22;14163;-26.142;27.992;2022-10-16T14:26:43;28.70;92.30
26479;DHT22;14163;-26.142;27.992;2022-10-16T14:29:17;28.90;92.00
26479;DHT22;14163;-26.142;27.992;2022-10-16T14:31:56;28.90;92.10
26479;DHT22;14163;-26.142;27.992;2022-10-16T14:34:37;28.80;92.20
26479;DHT22;14163;-26.142;27.992;2022-10-16T14:37:14;28.50;92.30
26479;DHT22;14163;-26.142;27.992;2022-10-16T14:39:50;28.30;93.00
26479;DHT22;14163;-26.142;27.992;2022-10-16T14:42:24;28.30;92.50
26479;DHT22;14163;-26.142;27.992;2022-10-16T14:44:55;28.20;93.00
26479;DHT22;14163;-26.142;27.992;2022-10-16T14:47:25;28.20;93.50
26479;DHT22;14163;-26.142;27.992;2022-10-16T14:49:57;28.20;94.10
26479;DHT22;14163;-26.142;27.992;2022-10-16T14:52:26;28.30;93.40
26479;DHT22;14163;-26.142;27.992;2022-10-16T14:54:55;28.30;93.80
26479;DHT22;14163;-26.142;27.992;2022-10-16T14:57:27;28.20;93.70
26479;DHT22;14163;-26.142;27.992;2022-10-16T14:59:59;28.30;93.80
26479;DHT22;14163;-26.142;27.992;2022-10-16T15:02:30;28.30;94.50
26479;DHT22;14163;-26.142;27.992;2022-10-16T15:05:10;28.20;93.70
26479;DHT22;14163;-26.142;27.992;2022-10-16T15:07:42;28.20;94.20
26479;DHT22;14163;-26.142;27.992;2022-10-16T15:10:13;28.20;93.70
26479;DHT22;14163;-26.142;27.992;2022-10-16T15:12:42;28.20;94.10
26479;DHT22;14163;-26.142;27.992;2022-10-16T15:15:35;28.30;93.10
26479;DHT22;14163;-26.142;27.992;2022-10-16T15:18:05;28.30;93.30
26479;DHT22;14163;-26.142;27.992;2022-10-16T15:20:37;28.10;92.70
26479;DHT22;14163;-26.142;27.992;2022-10-16T15:23:14;28.00;93.20
26479;DHT22;14163;-26.142;27.992;2022-10-16T15:25:53;28.00;93.00
26479;DHT22;14163;-26.142;27.992;2022-10-16T15:31:50;28.10;92.30
26479;DHT22;14163;-26.142;27.992;2022-10-16T15:34:35;28.50;92.50
26479;DHT22;14163;-26.142;27.992;2022-10-16T15:37:06;28.00;92.10
26479;DHT22;14163;-26.142;27.992;2022-10-16T15:39:36;28.10;92.00
26479;DHT22;14163;-26.142;27.992;2022-10-16T15:42:05;28.00;91.80
26479;DHT22;14163;-26.142;27.992;2022-10-16T15:44:40;27.90;91.70
26479;DHT22;14163;-26.142;27.992;2022-10-16T15:47:09;27.90;92.30
26479;DHT22;14163;-26.142;27.992;2022-10-16T15:49:39;27.90;91.90
26479;DHT22;14163;-26.142;27.992;2022-10-16T15:52:10;27.90;91.50
26479;DHT22;14163;-26.142;27.992;2022-10-16T15:54:39;27.80;92.00
26479;DHT22;14163;-26.142;27.992;2022-10-16T15:57:08;27.80;92.00
26479;DHT22;14163;-26.142;27.992;2022-10-16T15:59:38;27.70;93.10
26479;DHT22;14163;-26.142;27.992;2022-10-16T16:02:08;27.70;92.20
26479;DHT22;14163;-26.142;27.992;2022-10-16T16:04:37;27.70;93.10
26479;DHT22;14163;-26.142;27.992;2022-10-16T16:07:07;27.50;92.10
26479;DHT22;14163;-26.142;27.992;2022-10-16T16:09:38;27.40;92.30
26479;DHT22;14163;-26.142;27.992;2022-10-16T16:12:07;27.20;92.90
26479;DHT22;14163;-26.142;27.992;2022-10-16T16:14:36;27.30;93.60
26479;DHT22;14163;-26.142;27.992;2022-10-16T16:17:07;27.30;94.50
26479;DHT22;14163;-26.142;27.992;2022-10-16T16:19:36;27.30;93.50
26479;DHT22;14163;-26.142;27.992;2022-10-16T16:22:06;27.30;95.00
26479;DHT22;14163;-26.142;27.992;2022-10-16T16:24:35;27.30;94.80
26479;DHT22;14163;-26.142;27.992;2022-10-16T16:27:06;27.20;95.60
26479;DHT22;14163;-26.142;27.992;2022-10-16T16:29:35;27.10;93.70
26479;DHT22;14163;-26.142;27.992;2022-10-16T16:32:04;27.10;94.60
26479;DHT22;14163;-26.142;27.992;2022-10-16T16:34:33;27.20;95.00
26479;DHT22;14163;-26.142;27.992;2022-10-16T16:37:03;27.20;95.10
26479;DHT22;14163;-26.142;27.992;2022-10-16T16:39:32;27.20;94.90
26479;DHT22;14163;-26.142;27.992;2022-10-16T16:42:01;27.30;94.30
26479;DHT22;14163;-26.142;27.992;2022-10-16T16:44:34;27.20;93.60
26479;DHT22;14163;-26.142;27.992;2022-10-16T16:47:04;27.20;93.90
26479;DHT22;14163;-26.142;27.992;2022-10-16T16:49:34;27.20;93.90
26479;DHT22;14163;-26.142;27.992;2022-10-16T16:52:03;27.20;93.70
26479;DHT22;14163;-26.142;27.992;2022-10-16T16:54:33;27.20;93.40
26479;DHT22;14163;-26.142;27.992;2022-10-16T16:57:02;27.10;93.30
26479;DHT22;14163;-26.142;27.992;2022-10-16T16:59:33;27.00;93.50
26479;DHT22;14163;-26.142;27.992;2022-10-16T17:02:03;26.90;93.50
26479;DHT22;14163;-26.142;27.992;2022-10-16T17:04:32;27.00;94.00
26479;DHT22;14163;-26.142;27.992;2022-10-16T17:07:01;27.00;93.70
26479;DHT22;14163;-26.142;27.992;2022-10-16T17:09:33;26.90;93.40
26479;DHT22;14163;-26.142;27.992;2022-10-16T17:12:02;26.80;93.40
26479;DHT22;14163;-26.142;27.992;2022-10-16T17:14:33;26.70;93.60
26479;DHT22;14163;-26.142;27.992;2022-10-16T17:17:02;26.60;93.80
26479;DHT22;14163;-26.142;27.992;2022-10-16T17:19:33;26.60;93.90
26479;DHT22;14163;-26.142;27.992;2022-10-16T17:22:02;26.50;93.90
26479;DHT22;14163;-26.142;27.992;2022-10-16T17:24:32;26.50;94.00
26479;DHT22;14163;-26.142;27.992;2022-10-16T17:27:01;26.50;93.80
26479;DHT22;14163;-26.142;27.992;2022-10-16T17:29:30;26.50;94.30
26479;DHT22;14163;-26.142;27.992;2022-10-16T17:32:01;26.50;94.40
26479;DHT22;14163;-26.142;27.992;2022-10-16T17:34:30;26.50;94.20
26479;DHT22;14163;-26.142;27.992;2022-10-16T17:37:01;26.40;94.20
26479;DHT22;14163;-26.142;27.992;2022-10-16T17:39:30;26.40;94.30
26479;DHT22;14163;-26.142;27.992;2022-10-16T17:42:00;26.30;94.20
26479;DHT22;14163;-26.142;27.992;2022-10-16T17:44:29;26.20;94.40